Warrensburg, IL (62573)

11:33 PM CDT on July 26, 2016 (GMT -0500)
Greenbrier Drive | | Change Station

Elev 652 ft 39.93 °N, 88.98 °W | Updated 7 minutes ago

Clear
Clear
70.5 °F
Feels Like 70 °F
N
0.6
Wind Variable Wind from NE
Gusts 1.2 mph

Today
High -- | Low -- °F
--% Chance of Precip.
Yesterday
High -- | Low -- °F
Precip. -- in
Pressure 30.01 in
Visibility 10.0 miles
Clouds Clear
Heat Index 70 °F
Dew Point 65 °F
Humidity 82%
Rainfall 0.00 in
Snow Depth Not available.
5:49 AM 8:15 PM
Waning Gibbous, 47% visible
METAR KDEC 270354Z AUTO 10003KT 10SM CLR 21/20 A3003 RMK AO2 SLP163 T02110200
Pressure 30.01 in
Visibility 10.0 miles
Clouds Clear
Heat Index 70 °F
Dew Point 65 °F
Humidity 82%
Rainfall 0.00 in
Snow Depth Not available.
5:49 AM 8:15 PM
Waning Gibbous, 47% visible
METAR KDEC 270354Z AUTO 10003KT 10SM CLR 21/20 A3003 RMK AO2 SLP163 T02110200

10-Day Weather Forecast

Almanac

Astronomy

Jul. 26, 2016 Rise Set
Actual Time
Civil Twilight
Nautical Twilight
Astronomical Twilight
Moon
Length of Visible Light
Length of Day
Tomorrow will be .
, % of the Moon is Illuminated

Today's Extremes

State Highs State Lows

Community

WunderPhotos

Upload Photos

1,927,814 photos uploaded!

WunderBlog® & News

Nearby

Air Quality

  Air Quality AQ Index Pollutant
Not available.

Snow Depth

Station Depth Elevation

Earthquake Activity

City Distance Mag. Time & Date
Minimum magnitude displayed is 2.5.

Coastal Water Temperatures

Place Temperature

Stations

Nearby Weather Stations

Station Location Temp. Windchill Dew Point Humidity Wind Precip. Elev Updated Type
                   

Watches & Warnings

There are currently no watches in effect.